createdAt,value
2023-04-15T00:00:45.093Z,67.29
2023-04-15T00:01:45.418Z,67.36
2023-04-15T00:02:45.493Z,67.31
2023-04-15T00:03:46.093Z,67.45
2023-04-15T00:04:45.647Z,67.57
2023-04-15T00:05:45.831Z,67.76
2023-04-15T00:06:46.011Z,67.93
2023-04-15T00:07:45.932Z,68.31
2023-04-15T00:08:46.152Z,68.88
2023-04-15T00:09:46.181Z,69.28
2023-04-15T00:10:46.260Z,69.45
2023-04-15T00:11:46.370Z,69.54
2023-04-15T00:12:46.460Z,69.56
2023-04-15T00:13:46.778Z,69.79
2023-04-15T00:14:46.688Z,69.96
2023-04-15T00:15:46.938Z,69.98
2023-04-15T00:16:47.096Z,69.98
2023-04-15T00:17:47.147Z,69.99
2023-04-15T00:18:47.186Z,69.89
2023-04-15T00:19:47.545Z,69.78
2023-04-15T00:20:47.440Z,69.62
2023-04-15T00:21:47.767Z,69.50
2023-04-15T00:22:47.714Z,69.41
2023-04-15T00:23:47.913Z,69.35
2023-04-15T00:24:48.014Z,69.25
2023-04-15T00:25:48.242Z,69.07
2023-04-15T00:26:48.301Z,69.11
2023-04-15T00:27:48.312Z,69.16
2023-04-15T00:28:48.444Z,68.85
2023-04-15T00:29:48.615Z,68.75
2023-04-15T00:30:48.501Z,68.49
2023-04-15T00:31:48.589Z,68.45
2023-04-15T00:32:48.786Z,68.33
2023-04-15T00:33:48.866Z,68.20
2023-04-15T00:34:48.957Z,68.22
2023-04-15T00:35:49.021Z,68.36
2023-04-15T00:36:49.141Z,68.48
2023-04-15T00:37:49.294Z,68.25
2023-04-15T00:38:49.377Z,68.18
2023-04-15T00:39:49.466Z,67.91
2023-04-15T00:40:49.585Z,67.63
2023-04-15T00:41:49.786Z,67.53
2023-04-15T00:42:49.839Z,67.78
2023-04-15T00:43:49.952Z,67.83
2023-04-15T00:44:50.303Z,67.47
2023-04-15T00:45:50.264Z,67.31
2023-04-15T00:46:50.301Z,67.89
2023-04-15T00:47:50.426Z,67.93
2023-04-15T00:48:50.522Z,67.73
2023-04-15T00:49:50.647Z,67.51
2023-04-15T00:50:51.325Z,67.30
2023-04-15T00:51:50.796Z,67.27
2023-04-15T00:52:50.935Z,67.28
2023-04-15T00:53:51.050Z,67.50
2023-04-15T00:54:51.187Z,67.54
2023-04-15T00:55:51.310Z,67.45
2023-04-15T00:56:51.432Z,67.18
2023-04-15T00:57:51.550Z,67.26
2023-04-15T00:58:51.694Z,67.26
2023-04-15T00:59:51.770Z,67.30
2023-04-15T01:00:52.189Z,67.59
2023-04-15T01:01:52.495Z,67.74
2023-04-15T01:02:52.574Z,67.86
2023-04-15T01:03:52.472Z,67.99
2023-04-15T01:04:52.598Z,67.97
2023-04-15T01:05:52.551Z,67.75
2023-04-15T01:06:52.663Z,67.80
2023-04-15T01:07:52.935Z,67.85
2023-04-15T01:08:52.899Z,68.02
2023-04-15T01:09:53.016Z,68.32
2023-04-15T01:10:53.184Z,68.65
2023-04-15T01:11:53.301Z,68.86
2023-04-15T01:12:53.348Z,68.79
2023-04-15T01:13:53.462Z,68.86
2023-04-15T01:14:53.567Z,68.90
2023-04-15T01:15:53.740Z,68.87
2023-04-15T01:16:53.894Z,68.94
2023-04-15T01:17:53.929Z,69.17
2023-04-15T01:18:54.059Z,69.27
2023-04-15T01:19:54.110Z,69.39
2023-04-15T01:20:54.234Z,69.59
2023-04-15T01:21:54.470Z,69.41
2023-04-15T01:22:54.485Z,69.47
2023-04-15T01:23:54.590Z,69.39
2023-04-15T01:24:54.762Z,69.45
2023-04-15T01:25:54.780Z,69.55
2023-04-15T01:26:54.903Z,69.66
2023-04-15T01:27:55.035Z,69.57
2023-04-15T01:28:55.161Z,69.46
2023-04-15T01:29:55.252Z,69.51
2023-04-15T01:30:55.370Z,69.41
2023-04-15T01:31:55.660Z,69.71
2023-04-15T01:32:55.640Z,69.64
2023-04-15T01:33:55.836Z,69.75
2023-04-15T01:34:55.816Z,69.84
2023-04-15T01:35:55.946Z,69.87
2023-04-15T01:36:56.058Z,69.77
2023-04-15T01:37:56.178Z,69.70
2023-04-15T01:38:56.313Z,69.76
2023-04-15T01:39:56.446Z,70.10
2023-04-15T01:40:56.510Z,70.23
2023-04-15T01:41:57.280Z,70.42
2023-04-15T01:42:56.867Z,70.57
2023-04-15T01:43:56.947Z,70.79
2023-04-15T01:44:57.039Z,70.94
2023-04-15T01:45:57.074Z,71.25
2023-04-15T01:46:57.323Z,71.33
2023-04-15T01:47:57.361Z,71.28
2023-04-15T01:48:57.458Z,71.27
2023-04-15T01:49:57.597Z,71.15
2023-04-15T01:50:57.672Z,71.15
2023-04-15T01:51:57.797Z,71.08
2023-04-15T01:52:58.014Z,71.03
2023-04-15T01:53:58.106Z,70.98
2023-04-15T01:54:58.138Z,70.82
2023-04-15T01:55:58.501Z,70.64
2023-04-15T01:56:58.321Z,70.64
2023-04-15T01:57:58.451Z,70.68
2023-04-15T01:58:58.852Z,70.59
2023-04-15T01:59:58.748Z,70.60
2023-04-15T02:00:58.893Z,70.62
2023-04-15T02:01:58.996Z,70.42
2023-04-15T02:02:59.109Z,70.63
2023-04-15T02:03:59.190Z,70.62
2023-04-15T02:04:59.213Z,70.64
2023-04-15T02:05:59.342Z,70.67
2023-04-15T02:06:59.506Z,70.69
2023-04-15T02:07:59.610Z,70.78
2023-04-15T02:08:59.953Z,71.12
2023-04-15T02:09:59.809Z,71.54
2023-04-15T02:10:59.938Z,71.63
2023-04-15T02:12:00.060Z,71.77
2023-04-15T02:13:00.184Z,72.02
2023-04-15T02:14:00.408Z,72.01
2023-04-15T02:15:00.473Z,71.89
2023-04-15T02:16:00.494Z,71.83
2023-04-15T02:17:00.616Z,72.06
2023-04-15T02:18:00.772Z,72.23
2023-04-15T02:19:01.336Z,72.38
2023-04-15T02:20:00.959Z,72.63
2023-04-15T02:21:01.092Z,72.70
2023-04-15T02:22:01.232Z,72.84
2023-04-15T02:23:01.383Z,72.83
2023-04-15T02:24:01.577Z,72.88
2023-04-15T02:25:01.597Z,72.97
2023-04-15T02:26:01.760Z,72.71
2023-04-15T02:27:01.839Z,72.78
2023-04-15T02:28:01.878Z,72.71
2023-04-15T02:29:02.454Z,72.77
2023-04-15T02:30:02.127Z,72.85
2023-04-15T02:31:02.272Z,72.81
2023-04-15T02:32:02.379Z,72.79
2023-04-15T02:33:02.602Z,72.83
2023-04-15T02:34:02.559Z,72.58
2023-04-15T02:35:02.704Z,72.33
2023-04-15T02:36:02.749Z,72.06
2023-04-15T02:37:02.872Z,72.04
2023-04-15T02:38:03.035Z,72.32
2023-04-15T02:39:03.536Z,72.09
2023-04-15T02:40:03.243Z,72.13
2023-04-15T02:41:03.309Z,72.25
2023-04-15T02:42:03.740Z,72.27
2023-04-15T02:43:03.541Z,72.31
2023-04-15T02:44:03.873Z,72.23
2023-04-15T02:45:03.793Z,72.28
2023-04-15T02:46:04.003Z,72.07
2023-04-15T02:47:04.154Z,72.28
2023-04-15T02:48:04.138Z,72.05
2023-04-15T02:49:04.239Z,71.87
2023-04-15T02:50:04.539Z,71.68
2023-04-15T02:51:04.518Z,71.69
2023-04-15T02:52:04.670Z,71.93
2023-04-15T02:53:04.675Z,72.05
2023-04-15T02:54:04.801Z,71.91
2023-04-15T02:55:04.911Z,71.75
2023-04-15T02:56:05.009Z,71.78
2023-04-15T02:57:05.721Z,71.86
2023-04-15T02:58:05.259Z,71.59
2023-04-15T02:59:05.398Z,71.67
2023-04-15T03:00:05.518Z,71.54
2023-04-15T03:01:05.652Z,71.56
2023-04-15T03:02:05.852Z,71.53
2023-04-15T03:03:05.985Z,71.68
2023-04-15T03:04:06.092Z,71.67
2023-04-15T03:05:06.082Z,71.57
2023-04-15T03:06:06.211Z,71.63
2023-04-15T03:07:06.307Z,71.51
2023-04-15T03:08:06.454Z,71.60
2023-04-15T03:09:06.556Z,71.65
2023-04-15T03:10:06.622Z,71.93
2023-04-15T03:11:06.778Z,71.96
2023-04-15T03:12:06.876Z,71.94
2023-04-15T03:13:06.993Z,72.07
2023-04-15T03:14:07.091Z,72.12
2023-04-15T03:15:07.214Z,72.38
2023-04-15T03:16:07.404Z,72.49
2023-04-15T03:17:07.434Z,72.66
2023-04-15T03:18:07.626Z,72.64
2023-04-15T03:19:07.780Z,72.54
2023-04-15T03:20:07.870Z,72.61
2023-04-15T03:21:07.906Z,72.70
2023-04-15T03:22:08.326Z,72.75
2023-04-15T03:23:08.153Z,72.93
2023-04-15T03:24:08.309Z,72.97
2023-04-15T03:25:08.394Z,73.03
2023-04-15T03:26:08.517Z,73.08
2023-04-15T03:27:08.834Z,73.25
2023-04-15T03:28:08.803Z,73.44
2023-04-15T03:29:08.903Z,73.56
2023-04-15T03:30:09.064Z,73.65
2023-04-15T03:31:09.149Z,73.87
2023-04-15T03:32:09.309Z,73.89
2023-04-15T03:33:09.425Z,73.91
2023-04-15T03:34:09.481Z,73.90
2023-04-15T03:35:09.626Z,73.88
2023-04-15T03:36:09.734Z,73.89
2023-04-15T03:37:09.829Z,73.95
2023-04-15T03:38:09.987Z,74.12
2023-04-15T03:39:10.068Z,74.31
2023-04-15T03:40:10.305Z,74.41
2023-04-15T03:41:10.278Z,74.33
2023-04-15T03:42:11.018Z,74.28
2023-04-15T03:43:10.605Z,74.96
2023-04-15T03:44:10.598Z,74.97
2023-04-15T03:45:10.790Z,74.95
2023-04-15T03:46:10.853Z,74.87
2023-04-15T03:47:10.916Z,74.68
2023-04-15T03:48:17.653Z,74.82
2023-04-15T03:49:12.179Z,75.05
2023-04-15T03:50:11.318Z,75.61
2023-04-15T03:51:11.372Z,75.61
2023-04-15T03:52:11.519Z,75.58
2023-04-15T03:53:11.666Z,75.80
2023-04-15T03:54:11.764Z,75.51
2023-04-15T03:55:11.830Z,75.28
2023-04-15T03:56:11.942Z,75.19
2023-04-15T03:57:12.047Z,75.18
2023-04-15T03:58:12.350Z,75.06
2023-04-15T03:59:12.311Z,75.10
2023-04-15T04:00:12.412Z,75.11
2023-04-15T04:01:12.592Z,75.24
2023-04-15T04:02:12.826Z,75.34
2023-04-15T04:03:12.975Z,75.38
2023-04-15T04:04:13.092Z,75.28
2023-04-15T04:05:12.983Z,75.24
2023-04-15T04:06:13.098Z,75.12
2023-04-15T04:07:13.214Z,75.07
2023-04-15T04:08:13.317Z,75.24
2023-04-15T04:09:13.543Z,75.83
2023-04-15T04:10:13.553Z,75.88
2023-04-15T04:11:13.665Z,75.63
2023-04-15T04:12:13.785Z,75.74
2023-04-15T04:13:13.948Z,75.73
2023-04-15T04:14:14.106Z,75.60
2023-04-15T04:15:14.160Z,75.53
2023-04-15T04:16:14.325Z,75.45
2023-04-15T04:17:14.388Z,75.45
2023-04-15T04:18:14.626Z,75.34
2023-04-15T04:19:14.554Z,75.66
2023-04-15T04:20:14.663Z,75.59
2023-04-15T04:21:14.819Z,75.68
2023-04-15T04:22:14.938Z,75.75
2023-04-15T04:23:15.033Z,75.76
2023-04-15T04:24:15.207Z,75.82
2023-04-15T04:25:15.210Z,75.63
2023-04-15T04:26:15.695Z,75.61
2023-04-15T04:27:15.549Z,75.53
2023-04-15T04:28:15.617Z,75.51
2023-04-15T04:29:15.712Z,75.49
2023-04-15T04:30:15.874Z,75.50
2023-04-15T04:31:15.950Z,75.48
2023-04-15T04:32:16.145Z,75.63
2023-04-15T04:33:16.100Z,75.90
2023-04-15T04:34:16.349Z,75.89
2023-04-15T04:35:16.391Z,75.84
2023-04-15T04:36:16.445Z,75.86
2023-04-15T04:37:16.653Z,75.82
2023-04-15T04:38:16.691Z,75.95
2023-04-15T04:39:16.758Z,76.11
2023-04-15T04:40:16.972Z,76.23
2023-04-15T04:41:17.100Z,76.18
2023-04-15T04:42:17.440Z,76.36
2023-04-15T04:43:17.481Z,76.53
2023-04-15T04:44:17.389Z,76.61
2023-04-15T04:45:17.569Z,76.61
2023-04-15T04:46:17.723Z,76.57
2023-04-15T04:47:17.653Z,76.51
2023-04-15T04:48:18.800Z,76.39
2023-04-15T04:49:17.890Z,76.32
2023-04-15T04:50:18.017Z,76.39
2023-04-15T04:51:18.080Z,76.38
2023-04-15T04:52:18.228Z,76.41
2023-04-15T04:53:18.450Z,76.39
2023-04-15T04:54:18.460Z,76.37
2023-04-15T04:55:18.562Z,76.40
2023-04-15T04:56:18.692Z,76.51
2023-04-15T04:57:18.814Z,76.55
2023-04-15T04:58:18.988Z,76.49
2023-04-15T04:59:19.540Z,76.37
2023-04-15T05:00:19.131Z,76.29
2023-04-15T05:01:19.286Z,76.19
2023-04-15T05:02:19.472Z,76.27
2023-04-15T05:03:19.735Z,76.35
2023-04-15T05:04:19.663Z,76.49
2023-04-15T05:05:19.764Z,76.71
2023-04-15T05:06:19.831Z,76.83
2023-04-15T05:07:19.939Z,76.85
2023-04-15T05:08:20.204Z,76.92
2023-04-15T05:09:20.184Z,76.88
2023-04-15T05:10:20.297Z,76.99
2023-04-15T05:11:20.503Z,77.32
2023-04-15T05:12:20.555Z,77.57
2023-04-15T05:13:20.669Z,77.79
2023-04-15T05:14:22.875Z,77.96
2023-04-15T05:15:20.912Z,78.06
2023-04-15T05:16:21.136Z,78.07
2023-04-15T05:17:21.206Z,78.20
2023-04-15T05:18:21.325Z,78.20
2023-04-15T05:19:21.339Z,78.07
2023-04-15T05:20:21.550Z,77.87
2023-04-15T05:21:21.588Z,77.89
2023-04-15T05:22:21.813Z,77.77
2023-04-15T05:23:21.842Z,77.73
2023-04-15T05:24:21.979Z,77.82
2023-04-15T05:25:22.045Z,77.79
2023-04-15T05:26:22.164Z,77.77
2023-04-15T05:27:22.306Z,77.68
2023-04-15T05:28:22.481Z,77.63
2023-04-15T05:29:22.672Z,77.78
2023-04-15T05:30:22.560Z,77.71
2023-04-15T05:31:22.734Z,77.69
2023-04-15T05:32:22.857Z,77.65
2023-04-15T05:33:22.926Z,78.22
2023-04-15T05:34:23.080Z,77.32
2023-04-15T05:35:23.240Z,76.64
2023-04-15T05:36:23.282Z,76.24
2023-04-15T05:37:23.417Z,76.05
2023-04-15T05:38:23.573Z,75.99
2023-04-15T05:39:23.672Z,75.97
2023-04-15T05:40:23.879Z,75.87
2023-04-15T05:41:23.954Z,75.48
2023-04-15T05:42:24.107Z,75.28
2023-04-15T05:43:24.167Z,75.14
2023-04-15T05:44:24.257Z,75.26
2023-04-15T05:45:24.345Z,75.39
2023-04-15T05:46:24.507Z,75.34
2023-04-15T05:47:24.782Z,74.81
2023-04-15T05:48:24.655Z,74.52
2023-04-15T05:49:24.816Z,75.06
2023-04-15T05:50:25.134Z,74.58
2023-04-15T05:51:25.041Z,73.92
2023-04-15T05:52:25.247Z,73.87
2023-04-15T05:53:25.273Z,73.88
2023-04-15T05:54:25.359Z,74.14
2023-04-15T05:55:25.639Z,74.20
2023-04-15T05:56:25.645Z,75.12
2023-04-15T05:57:25.748Z,75.04
2023-04-15T05:58:25.964Z,75.09
2023-04-15T05:59:26.022Z,75.10
2023-04-15T06:00:26.091Z,75.48
2023-04-15T06:01:26.253Z,75.59
2023-04-15T06:02:26.534Z,75.41
2023-04-15T06:03:26.517Z,75.80
2023-04-15T06:04:26.913Z,75.12
2023-04-15T06:05:26.667Z,75.24
2023-04-15T06:06:26.795Z,75.81
2023-04-15T06:07:26.954Z,75.91
2023-04-15T06:08:26.999Z,75.75
2023-04-15T06:09:27.134Z,75.87
2023-04-15T06:10:27.221Z,75.60
2023-04-15T06:11:27.417Z,76.00
2023-04-15T06:12:27.537Z,76.32
2023-04-15T06:13:27.582Z,75.41
2023-04-15T06:14:27.658Z,74.83
2023-04-15T06:15:27.782Z,75.61
2023-04-15T06:16:29.552Z,76.12
2023-04-15T06:17:28.044Z,75.84
2023-04-15T06:18:28.145Z,75.79
2023-04-15T06:19:28.304Z,75.78
2023-04-15T06:20:28.396Z,75.33
2023-04-15T06:21:28.576Z,75.06
2023-04-15T06:22:28.697Z,74.92
2023-04-15T06:23:28.757Z,74.63
2023-04-15T06:24:28.977Z,74.81
2023-04-15T06:25:29.015Z,74.71
2023-04-15T06:26:29.086Z,73.71
2023-04-15T06:27:29.257Z,72.69
2023-04-15T06:28:29.396Z,72.00
2023-04-15T06:29:29.402Z,72.43
2023-04-15T06:30:29.637Z,71.63
2023-04-15T06:31:29.687Z,71.08
2023-04-15T06:32:29.810Z,70.60
2023-04-15T06:33:29.894Z,71.28
2023-04-15T06:34:30.071Z,70.12
2023-04-15T06:35:30.350Z,69.80
2023-04-15T06:36:30.185Z,70.18
2023-04-15T06:37:30.382Z,70.99
2023-04-15T06:38:30.409Z,70.20
2023-04-15T06:39:30.580Z,70.32
2023-04-15T06:40:30.653Z,70.28
2023-04-15T06:41:30.717Z,70.39
2023-04-15T06:42:30.886Z,69.27
2023-04-15T06:43:31.148Z,68.30
2023-04-15T06:44:33.244Z,68.20
2023-04-15T06:45:31.241Z,67.47
2023-04-15T06:46:31.288Z,67.80
2023-04-15T06:47:31.459Z,68.09
2023-04-15T06:48:31.576Z,68.45
2023-04-15T06:49:31.647Z,68.92
2023-04-15T06:50:32.178Z,69.00
2023-04-15T06:51:31.967Z,68.25
2023-04-15T06:52:32.079Z,68.09
2023-04-15T06:53:32.103Z,68.41
2023-04-15T06:54:32.235Z,68.18
2023-04-15T06:55:32.545Z,67.52
2023-04-15T06:56:32.458Z,67.61
2023-04-15T06:57:34.863Z,67.00
2023-04-15T06:58:32.762Z,66.49
2023-04-15T06:59:32.819Z,66.39
2023-04-15T07:00:33.010Z,65.98
2023-04-15T07:01:33.135Z,66.59
2023-04-15T07:02:33.396Z,66.31
2023-04-15T07:03:33.288Z,66.87
2023-04-15T07:04:33.479Z,66.05
2023-04-15T07:05:33.710Z,65.54
2023-04-15T07:06:33.629Z,65.65
2023-04-15T07:07:33.740Z,65.29
2023-04-15T07:08:33.848Z,65.30
2023-04-15T07:09:35.018Z,65.41
2023-04-15T07:10:34.071Z,64.45
2023-04-15T07:11:34.236Z,63.90
2023-04-15T07:12:34.289Z,63.76
2023-04-15T07:13:34.424Z,63.72
2023-04-15T07:14:34.521Z,63.40
2023-04-15T07:15:34.626Z,62.98
2023-04-15T07:16:34.809Z,63.78
2023-04-15T07:17:34.893Z,64.59
2023-04-15T07:18:34.930Z,63.90
2023-04-15T07:19:35.081Z,63.19
2023-04-15T07:20:35.153Z,64.01
2023-04-15T07:21:35.324Z,63.22
2023-04-15T07:22:35.407Z,62.88
2023-04-15T07:23:35.572Z,61.46
2023-04-15T07:24:35.683Z,60.71
2023-04-15T07:25:35.817Z,61.61
2023-04-15T07:26:35.959Z,61.86
2023-04-15T07:27:36.172Z,61.79
2023-04-15T07:28:36.210Z,62.39
2023-04-15T07:29:36.373Z,62.52
2023-04-15T07:30:36.543Z,61.60
2023-04-15T07:31:36.684Z,61.03
2023-04-15T07:32:37.042Z,60.47
2023-04-15T07:33:36.819Z,60.63
2023-04-15T07:34:37.021Z,60.55
2023-04-15T07:35:37.211Z,61.47
2023-04-15T07:36:37.253Z,62.05
2023-04-15T07:37:37.398Z,62.22
2023-04-15T07:38:37.568Z,61.95
2023-04-15T07:39:37.624Z,62.06
2023-04-15T07:40:37.788Z,62.00
2023-04-15T07:41:37.946Z,62.85
2023-04-15T07:42:39.415Z,61.90
2023-04-15T07:43:38.185Z,61.65
2023-04-15T07:44:38.293Z,61.33
2023-04-15T07:45:38.491Z,62.26
2023-04-15T07:46:38.788Z,61.12
2023-04-15T07:47:38.710Z,61.69
2023-04-15T07:48:38.818Z,61.22
2023-04-15T07:49:38.907Z,60.68
2023-04-15T07:50:39.055Z,60.48
2023-04-15T07:51:39.246Z,61.29
2023-04-15T07:52:39.293Z,62.31
2023-04-15T07:53:39.432Z,62.22
2023-04-15T07:54:39.572Z,61.70
2023-04-15T07:55:39.718Z,60.89
2023-04-15T07:56:39.845Z,61.21
2023-04-15T07:57:40.085Z,62.66
2023-04-15T07:58:40.067Z,62.03
2023-04-15T07:59:40.207Z,63.54
2023-04-15T08:00:40.345Z,61.82
2023-04-15T08:01:40.439Z,61.94
2023-04-15T08:02:40.874Z,62.99
2023-04-15T08:03:40.767Z,62.13
2023-04-15T08:04:41.048Z,61.43
2023-04-15T08:05:40.934Z,62.40
2023-04-15T08:06:41.043Z,62.16
2023-04-15T08:07:41.231Z,61.41
2023-04-15T08:08:41.365Z,62.38
2023-04-15T08:09:41.473Z,60.51
2023-04-15T08:10:41.588Z,61.63
2023-04-15T08:11:41.727Z,62.28
2023-04-15T08:12:41.887Z,63.03
2023-04-15T08:13:41.941Z,63.03
2023-04-15T08:14:42.091Z,61.07
2023-04-15T08:15:42.242Z,62.07
2023-04-15T08:16:42.312Z,62.22
2023-04-15T08:17:42.594Z,62.78
2023-04-15T08:18:42.601Z,63.23
2023-04-15T08:19:42.726Z,63.08
2023-04-15T08:20:42.817Z,63.07
2023-04-15T08:21:42.972Z,63.40
2023-04-15T08:22:43.160Z,62.45
2023-04-15T08:23:43.194Z,62.88
2023-04-15T08:24:43.326Z,62.41
2023-04-15T08:25:43.455Z,61.68
2023-04-15T08:26:43.586Z,62.03
2023-04-15T08:27:43.708Z,62.14
2023-04-15T08:28:43.790Z,61.94
2023-04-15T08:29:43.963Z,63.15
2023-04-15T08:30:44.059Z,63.74
2023-04-15T08:31:44.307Z,61.89
2023-04-15T08:32:44.339Z,60.28
2023-04-15T08:33:44.502Z,61.71
2023-04-15T08:34:44.596Z,60.91
2023-04-15T08:35:44.755Z,61.67
2023-04-15T08:36:44.941Z,61.34
2023-04-15T08:37:45.073Z,61.64
2023-04-15T08:38:45.164Z,61.84
2023-04-15T08:39:45.209Z,60.88
2023-04-15T08:40:45.333Z,60.48
2023-04-15T08:41:45.540Z,60.14
2023-04-15T08:42:45.605Z,60.64
2023-04-15T08:43:45.729Z,60.97
2023-04-15T08:44:45.844Z,60.64
2023-04-15T08:45:46.043Z,61.07
2023-04-15T08:46:46.155Z,61.15
2023-04-15T08:47:46.325Z,60.53
2023-04-15T08:48:46.399Z,60.54
2023-04-15T08:49:46.507Z,61.32
2023-04-15T08:50:46.651Z,59.84
2023-04-15T08:51:46.738Z,60.51
2023-04-15T08:52:46.967Z,60.68
2023-04-15T08:53:47.046Z,60.00
2023-04-15T08:54:47.138Z,60.09
2023-04-15T08:55:47.318Z,58.66
2023-04-15T08:56:47.458Z,59.46
2023-04-15T08:57:47.588Z,59.39
2023-04-15T08:58:47.699Z,58.92
2023-04-15T08:59:47.785Z,59.44
2023-04-15T09:00:48.009Z,59.21
2023-04-15T09:01:48.263Z,59.37
2023-04-15T09:02:48.346Z,60.12
2023-04-15T09:03:48.540Z,60.61
2023-04-15T09:04:48.476Z,59.08
2023-04-15T09:05:48.641Z,59.71
2023-04-15T09:06:48.769Z,58.80
2023-04-15T09:07:48.884Z,59.39
2023-04-15T09:08:49.026Z,59.40
2023-04-15T09:09:49.205Z,59.59
2023-04-15T09:10:49.300Z,58.05
2023-04-15T09:11:49.429Z,59.08
2023-04-15T09:12:49.515Z,57.76
2023-04-15T09:13:49.688Z,58.63
2023-04-15T09:14:49.778Z,59.87
2023-04-15T09:15:50.018Z,58.54
2023-04-15T09:16:50.495Z,58.15
2023-04-15T09:17:50.251Z,57.31
2023-04-15T09:18:50.347Z,57.26
2023-04-15T09:19:50.438Z,57.79
2023-04-15T09:20:50.588Z,57.33
2023-04-15T09:21:50.756Z,57.74
2023-04-15T09:22:50.813Z,57.85
2023-04-15T09:23:50.956Z,58.66
2023-04-15T09:24:51.120Z,57.07
2023-04-15T09:25:51.220Z,56.83
2023-04-15T09:26:51.405Z,55.96
2023-04-15T09:27:51.434Z,55.37
2023-04-15T09:28:51.616Z,54.98
2023-04-15T09:29:51.743Z,54.56
2023-04-15T09:30:52.020Z,53.91
2023-04-15T09:31:51.998Z,54.35
2023-04-15T09:32:52.186Z,54.71
2023-04-15T09:33:52.377Z,55.01
2023-04-15T09:34:52.361Z,56.31
2023-04-15T09:35:52.499Z,55.01
2023-04-15T09:36:52.663Z,54.93
2023-04-15T09:37:52.900Z,55.32
2023-04-15T09:38:53.002Z,55.55
2023-04-15T09:39:53.076Z,55.65
2023-04-15T09:40:53.180Z,55.11
2023-04-15T09:41:53.334Z,55.56
2023-04-15T09:42:53.472Z,56.22
2023-04-15T09:43:53.585Z,55.56
2023-04-15T09:44:53.746Z,56.28
2023-04-15T09:45:53.912Z,56.04
2023-04-15T09:46:53.988Z,56.85
2023-04-15T09:47:55.341Z,57.08
2023-04-15T09:48:54.214Z,57.82
2023-04-15T09:49:54.484Z,57.97
2023-04-15T09:50:54.811Z,57.50
2023-04-15T09:52:04.375Z,57.24
2023-04-15T09:52:55.785Z,57.96
2023-04-15T09:53:54.858Z,54.23
2023-04-15T09:54:55.004Z,55.15
2023-04-15T09:55:55.558Z,54.53
2023-04-15T09:56:55.361Z,52.31
2023-04-15T09:57:55.460Z,52.84
2023-04-15T09:58:55.589Z,51.05
2023-04-15T09:59:55.746Z,51.39
2023-04-15T10:00:55.802Z,50.30
2023-04-15T10:01:56.044Z,50.70
2023-04-15T10:02:56.402Z,51.01
2023-04-15T10:03:56.246Z,52.63
2023-04-15T10:04:56.303Z,53.12
2023-04-15T10:05:56.469Z,52.64
2023-04-15T10:06:56.547Z,50.27
2023-04-15T10:07:56.703Z,49.73
2023-04-15T10:08:56.841Z,49.73
2023-04-15T10:09:57.050Z,50.15
2023-04-15T10:10:57.357Z,49.87
2023-04-15T10:11:57.227Z,49.56
2023-04-15T10:12:57.332Z,50.04
2023-04-15T10:13:57.499Z,50.68
2023-04-15T10:14:57.633Z,49.99
2023-04-15T10:15:57.785Z,48.25
2023-04-15T10:16:57.871Z,47.78
2023-04-15T10:17:58.061Z,49.58
2023-04-15T10:18:58.202Z,49.02
2023-04-15T10:19:58.241Z,49.16
2023-04-15T10:20:58.395Z,49.25
2023-04-15T10:21:58.492Z,50.98
2023-04-15T10:22:58.660Z,50.69
2023-04-15T10:23:58.830Z,52.18
2023-04-15T10:24:58.889Z,50.98
2023-04-15T10:25:59.016Z,50.72
2023-04-15T10:26:59.161Z,49.94
2023-04-15T10:27:59.234Z,52.02
2023-04-15T10:29:00.159Z,50.08
2023-04-15T10:29:59.606Z,50.68
2023-04-15T10:30:59.802Z,49.94
2023-04-15T10:31:59.794Z,50.46
2023-04-15T10:33:00.051Z,49.99
2023-04-15T10:34:01.072Z,48.52
2023-04-15T10:35:00.264Z,48.48
2023-04-15T10:36:00.380Z,47.87
2023-04-15T10:37:00.473Z,48.36
2023-04-15T10:38:00.640Z,48.79
2023-04-15T10:39:00.773Z,49.11
2023-04-15T10:40:00.923Z,50.59
2023-04-15T10:41:01.204Z,50.96
2023-04-15T10:42:01.176Z,51.27
2023-04-15T10:43:01.374Z,50.69
2023-04-15T10:44:01.717Z,49.52
2023-04-15T10:45:03.086Z,51.84
2023-04-15T10:46:01.698Z,49.89
2023-04-15T10:47:01.844Z,50.93
2023-04-15T10:48:03.614Z,51.06
2023-04-15T10:49:02.339Z,51.24
2023-04-15T10:50:02.630Z,50.29
2023-04-15T10:51:02.431Z,47.89
2023-04-15T10:52:02.563Z,48.66
2023-04-15T10:53:02.704Z,47.87
2023-04-15T10:54:02.852Z,48.38
2023-04-15T10:55:03.047Z,48.97
2023-04-15T10:56:03.509Z,48.88
2023-04-15T10:57:03.287Z,48.70
2023-04-15T10:58:03.391Z,49.15
2023-04-15T10:59:03.510Z,49.29
2023-04-15T11:00:03.658Z,48.20
2023-04-15T11:01:03.800Z,49.06
2023-04-15T11:02:04.037Z,49.96
2023-04-15T11:03:04.193Z,49.85
2023-04-15T11:04:04.514Z,48.57
2023-04-15T11:05:04.384Z,49.30
2023-04-15T11:06:04.413Z,49.93
2023-04-15T11:07:04.687Z,48.86
2023-04-15T11:08:04.778Z,49.15
2023-04-15T11:09:04.821Z,49.42
2023-04-15T11:10:04.936Z,50.06
2023-04-15T11:11:05.319Z,50.43
2023-04-15T11:12:05.384Z,49.35
2023-04-15T11:13:05.368Z,49.18
2023-04-15T11:14:05.446Z,49.94
2023-04-15T11:15:05.915Z,50.76
2023-04-15T11:16:06.686Z,49.41
2023-04-15T11:17:05.898Z,47.84
2023-04-15T11:18:06.119Z,48.06
2023-04-15T11:19:06.157Z,48.43
2023-04-15T11:20:06.487Z,47.83
2023-04-15T11:21:06.670Z,49.53
2023-04-15T11:22:07.261Z,49.18
2023-04-15T11:23:14.375Z,49.51
2023-04-15T11:24:08.073Z,48.17
2023-04-15T11:25:06.858Z,49.58
2023-04-15T11:26:06.979Z,48.92
2023-04-15T11:27:07.071Z,47.57
2023-04-15T11:28:07.393Z,49.19
2023-04-15T11:29:08.444Z,49.35
2023-04-15T11:30:07.676Z,49.07
2023-04-15T11:31:07.847Z,48.46
2023-04-15T11:32:07.954Z,49.79
2023-04-15T11:33:07.885Z,48.83
2023-04-15T11:34:08.130Z,48.95
2023-04-15T11:35:08.126Z,50.41
2023-04-15T11:36:08.284Z,50.63
2023-04-15T11:37:08.353Z,49.92
2023-04-15T11:38:08.534Z,47.58
2023-04-15T11:39:08.626Z,48.57
2023-04-15T11:40:08.775Z,48.37
2023-04-15T11:41:08.885Z,50.64
2023-04-15T11:42:09.155Z,48.40
2023-04-15T11:43:09.138Z,48.57
2023-04-15T11:44:09.336Z,48.86
2023-04-15T11:45:09.451Z,48.65
2023-04-15T11:46:09.620Z,50.06
2023-04-15T11:47:09.717Z,48.54
2023-04-15T11:48:09.836Z,48.78
2023-04-15T11:49:09.967Z,51.31
2023-04-15T11:50:10.096Z,49.86
2023-04-15T11:51:10.233Z,49.27
2023-04-15T11:52:10.387Z,50.45
2023-04-15T11:53:10.505Z,50.46
2023-04-15T11:54:10.768Z,48.44
2023-04-15T11:55:10.827Z,49.72
2023-04-15T11:56:10.857Z,50.30
2023-04-15T11:57:10.994Z,51.30
2023-04-15T11:58:11.124Z,50.01
2023-04-15T11:59:11.294Z,49.74
2023-04-15T12:00:11.372Z,49.97
2023-04-15T12:01:11.471Z,49.80
2023-04-15T12:02:11.711Z,51.07
2023-04-15T12:03:11.923Z,50.69
2023-04-15T12:04:12.189Z,50.04
2023-04-15T12:05:11.998Z,50.70
2023-04-15T12:06:12.207Z,51.15
2023-04-15T12:07:12.320Z,52.25
2023-04-15T12:08:12.438Z,50.98
2023-04-15T12:09:12.504Z,50.92
2023-04-15T12:10:12.698Z,51.35
2023-04-15T12:11:12.823Z,49.91
2023-04-15T12:12:13.088Z,50.75
2023-04-15T12:13:13.003Z,51.33
2023-04-15T12:14:13.134Z,51.25
2023-04-15T12:15:13.239Z,52.31
2023-04-15T12:16:13.452Z,53.00
2023-04-15T12:17:13.593Z,52.97
2023-04-15T12:18:13.796Z,53.16
2023-04-15T12:19:13.845Z,52.21
2023-04-15T12:20:13.962Z,52.10
2023-04-15T12:21:14.092Z,53.94
2023-04-15T12:22:14.211Z,51.21
2023-04-15T12:23:14.682Z,51.73
2023-04-15T12:24:14.446Z,51.37
2023-04-15T12:25:14.601Z,54.32
2023-04-15T12:26:14.645Z,52.98
2023-04-15T12:27:14.817Z,52.83
2023-04-15T12:28:15.078Z,53.48
2023-04-15T12:29:15.141Z,54.16
2023-04-15T12:30:18.064Z,52.08
2023-04-15T12:31:15.428Z,51.83
2023-04-15T12:32:15.593Z,52.07
2023-04-15T12:33:15.647Z,52.03
2023-04-15T12:34:15.733Z,52.65
2023-04-15T12:35:16.010Z,51.83
2023-04-15T12:36:16.012Z,51.70
2023-04-15T12:37:16.211Z,51.63
2023-04-15T12:38:16.508Z,51.65
2023-04-15T12:39:16.701Z,52.19
2023-04-15T12:40:16.679Z,52.78
2023-04-15T12:41:16.902Z,53.06
2023-04-15T12:42:16.974Z,53.17
2023-04-15T12:43:17.002Z,54.01
2023-04-15T12:44:17.172Z,53.84
2023-04-15T12:45:17.216Z,53.54
2023-04-15T12:46:17.427Z,54.31
2023-04-15T12:47:17.616Z,54.40
2023-04-15T12:48:17.648Z,55.19
2023-04-15T12:49:17.765Z,55.71
2023-04-15T12:50:17.962Z,56.04
2023-04-15T12:51:17.970Z,53.60
2023-04-15T12:52:18.195Z,52.44
2023-04-15T12:53:18.886Z,53.02
2023-04-15T12:54:18.505Z,53.20